Time;durP1;ratioP1;P1;durP2;ratioP2;P2;SDS_P1;SDS_P2;PMS_P1;PMS_P2;Temp;Humidity;BMP_temperature;BMP_pressure;BME280_temperature;BME280_humidity;BME280_pressure;Samples;Min_cycle;Max_cycle;Signal;HPM_P1;HPM_P2
2023/05/21 00:01:15;;;;;;;12.30;6.20;;;16.40;99.90;;;;;;4954485;29;20042;-68
2023/05/21 00:03:48;;;;;;;17.98;6.88;;;16.40;99.90;;;;;;4948857;29;20493;-67
2023/05/21 00:06:14;;;;;;;10.32;5.85;;;16.40;99.90;;;;;;4954464;29;20407;-68
2023/05/21 00:08:41;;;;;;;9.57;4.32;;;16.40;99.90;;;;;;4963232;28;20035;-68
2023/05/21 00:11:07;;;;;;;10.52;5.20;;;16.30;99.90;;;;;;4954270;29;20027;-68
2023/05/21 00:13:33;;;;;;;12.10;6.28;;;16.30;99.90;;;;;;4947589;29;20765;-67
2023/05/21 00:15:59;;;;;;;9.10;5.43;;;16.40;99.90;;;;;;4969196;28;20042;-68
2023/05/21 00:18:25;;;;;;;15.20;6.68;;;16.30;99.90;;;;;;4963472;28;20035;-67
2023/05/21 00:20:51;;;;;;;9.50;5.47;;;16.30;99.90;;;;;;4953974;29;20275;-67
2023/05/21 00:23:18;;;;;;;11.70;5.63;;;16.30;99.90;;;;;;4948308;29;20034;-67
2023/05/21 00:25:45;;;;;;;11.90;6.07;;;16.30;99.90;;;;;;4968621;28;20031;-67
2023/05/21 00:28:11;;;;;;;11.63;6.18;;;16.30;99.90;;;;;;4948450;29;20031;-67
2023/05/21 00:30:36;;;;;;;13.90;6.38;;;16.20;99.90;;;;;;4953982;29;20027;-68
2023/05/21 00:33:02;;;;;;;12.45;6.30;;;16.20;99.90;;;;;;4948411;29;20079;-68
2023/05/21 00:35:29;;;;;;;13.13;5.68;;;16.20;99.90;;;;;;4953998;29;20031;-67
2023/05/21 00:37:55;;;;;;;15.77;6.38;;;16.20;99.90;;;;;;4962434;28;20065;-67
2023/05/21 00:40:21;;;;;;;13.30;6.00;;;16.10;99.90;;;;;;4953714;29;20411;-68
2023/05/21 00:42:46;;;;;;;24.40;6.93;;;16.10;99.90;;;;;;4947959;29;20034;-68
2023/05/21 00:45:15;;;;;;;11.65;6.47;;;16.20;99.90;;;;;;4953507;29;20085;-67
2023/05/21 00:47:43;;;;;;;15.00;5.95;;;16.20;99.90;;;;;;4947610;29;20114;-68
2023/05/21 00:50:10;;;;;;;12.52;5.68;;;16.20;99.90;;;;;;4968342;28;20373;-67
2023/05/21 00:52:40;;;;;;;12.68;6.10;;;16.20;99.90;;;;;;4962850;28;20027;-68
2023/05/21 00:55:08;;;;;;;11.70;5.65;;;16.20;99.90;;;;;;4967922;28;20083;-67
2023/05/21 00:57:38;;;;;;;12.55;5.63;;;16.10;99.90;;;;;;4962392;28;20043;-67
2023/05/21 01:00:09;;;;;;;9.52;5.18;;;16.20;99.90;;;;;;4967726;28;20031;-68
2023/05/21 01:02:36;;;;;;;13.20;5.53;;;16.20;99.90;;;;;;4947800;29;20039;-67
2023/05/21 01:05:04;;;;;;;11.48;6.78;;;16.10;99.90;;;;;;4947882;28;20039;-68
2023/05/21 01:07:34;;;;;;;11.02;5.53;;;16.10;99.90;;;;;;4957619;28;20189;-68
2023/05/21 01:10:07;;;;;;;13.68;5.53;;;16.10;99.90;;;;;;4948971;29;20031;-68
2023/05/21 01:12:34;;;;;;;13.07;6.30;;;16.10;99.90;;;;;;4951758;28;20035;-67
2023/05/21 01:15:02;;;;;;;17.13;6.13;;;16.10;99.90;;;;;;4967951;28;20039;-68
2023/05/21 01:17:30;;;;;;;13.15;5.82;;;16.10;99.90;;;;;;4947527;28;20040;-68
2023/05/21 01:19:57;;;;;;;12.80;5.28;;;16.00;99.90;;;;;;4967552;28;20027;-68
2023/05/21 01:22:24;;;;;;;13.15;6.15;;;16.10;99.90;;;;;;4962476;28;20074;-67
2023/05/21 01:24:54;;;;;;;13.80;5.97;;;16.00;99.90;;;;;;4967948;28;20419;-67
2023/05/21 01:27:20;;;;;;;13.30;5.57;;;16.00;99.90;;;;;;4947495;29;20113;-68
2023/05/21 01:29:45;;;;;;;14.43;6.63;;;16.00;99.90;;;;;;4953121;29;20488;-68
2023/05/21 01:32:37;;;;;;;11.38;5.30;;;15.90;99.90;;;;;;4946312;29;20099;-68
2023/05/21 01:35:10;;;;;;;14.45;6.28;;;15.90;99.90;;;;;;4953371;29;20055;-67
2023/05/21 01:37:44;;;;;;;12.23;5.55;;;15.90;99.90;;;;;;4947857;29;20024;-67
2023/05/21 01:40:28;;;;;;;13.55;6.07;;;16.00;99.90;;;;;;4952539;29;20090;-67
2023/05/21 01:42:54;;;;;;;12.32;5.43;;;15.90;99.90;;;;;;4951347;29;20121;-67
2023/05/21 01:45:22;;;;;;;10.55;5.65;;;15.90;99.90;;;;;;4967429;28;20046;-67
2023/05/21 01:47:51;;;;;;;11.15;5.05;;;15.90;99.90;;;;;;4961268;28;20047;-67
2023/05/21 01:50:18;;;;;;;14.75;6.55;;;16.00;99.90;;;;;;4951001;29;20050;-67
2023/05/21 01:52:53;;;;;;;13.02;5.57;;;16.00;99.90;;;;;;4947003;29;20031;-67
2023/05/21 01:55:23;;;;;;;13.30;6.18;;;16.00;99.90;;;;;;4952771;29;20035;-67
2023/05/21 01:57:54;;;;;;;11.70;5.32;;;15.90;99.90;;;;;;4947263;29;20039;-68
2023/05/21 02:00:21;;;;;;;;;;;15.90;99.90;;;;;;4953135;29;20039;-67
2023/05/21 02:02:47;;;;;;;12.85;5.93;;;15.80;99.90;;;;;;4951164;29;19921;-67
2023/05/21 02:05:13;;;;;;;12.20;5.93;;;15.80;99.90;;;;;;4967765;28;20035;-67
2023/05/21 02:07:39;;;;;;;10.73;5.43;;;15.90;99.90;;;;;;4947284;29;20042;-67
2023/05/21 02:10:06;;;;;;;10.35;5.68;;;15.80;99.90;;;;;;4967341;28;20605;-68
2023/05/21 02:12:32;;;;;;;10.52;5.22;;;15.80;99.90;;;;;;4966698;28;20094;-67
2023/05/21 02:14:58;;;;;;;13.43;4.57;;;15.70;99.90;;;;;;4967618;28;20073;-68
2023/05/21 02:17:24;;;;;;;14.80;6.78;;;15.80;99.90;;;;;;4946889;29;20055;-67
2023/05/21 02:19:50;;;;;;;12.40;5.63;;;15.70;99.90;;;;;;4952265;29;20557;-67
2023/05/21 02:22:16;;;;;;;14.57;6.13;;;15.70;99.90;;;;;;4961754;28;20114;-67
2023/05/21 02:24:42;;;;;;;12.10;5.20;;;15.70;99.90;;;;;;4952130;29;20050;-67
2023/05/21 02:27:09;;;;;;;17.33;5.05;;;15.70;99.90;;;;;;4946751;29;20126;-67
2023/05/21 02:29:35;;;;;;;10.27;5.43;;;15.70;99.90;;;;;;4966589;28;20031;-68
2023/05/21 02:32:01;;;;;;;11.73;5.70;;;15.60;99.90;;;;;;4962768;28;20480;-67
2023/05/21 02:34:31;;;;;;;13.05;5.93;;;15.60;99.90;;;;;;4950988;29;20066;-68
2023/05/21 02:36:57;;;;;;;11.88;5.65;;;15.60;99.90;;;;;;4948396;29;20032;-67
2023/05/21 02:39:23;;;;;;;11.18;5.68;;;15.60;99.90;;;;;;4950322;29;20038;-68
2023/05/21 02:41:49;;;;;;;9.52;5.07;;;15.60;99.90;;;;;;4949720;29;20125;-67
2023/05/21 02:44:15;;;;;;;12.98;5.93;;;15.60;99.90;;;;;;4949341;29;20042;-67
2023/05/21 02:46:41;;;;;;;11.95;5.93;;;15.50;99.90;;;;;;4964737;28;20114;-68
2023/05/21 02:49:06;;;;;;;11.75;5.57;;;15.50;99.90;;;;;;4947838;29;20115;-67
2023/05/21 02:51:32;;;;;;;10.27;5.43;;;15.50;99.90;;;;;;4951484;29;20035;-67
2023/05/21 02:53:58;;;;;;;17.42;7.20;;;15.50;99.90;;;;;;4947032;29;20035;-67
2023/05/21 02:56:24;;;;;;;11.75;6.22;;;15.50;99.90;;;;;;4952082;29;20066;-67
2023/05/21 02:58:50;;;;;;;11.65;6.07;;;15.50;99.90;;;;;;4945504;29;20392;-67
2023/05/21 03:01:16;;;;;;;15.25;6.25;;;15.50;99.90;;;;;;4955006;28;20039;-68
2023/05/21 03:03:42;;;;;;;11.55;6.22;;;15.50;99.90;;;;;;4949848;29;20201;-67
2023/05/21 03:06:09;;;;;;;12.65;5.82;;;15.50;99.90;;;;;;4970439;28;20549;-67
2023/05/21 03:08:36;;;;;;;11.30;5.38;;;15.50;99.90;;;;;;4948458;29;20114;-68
2023/05/21 03:11:01;;;;;;;14.98;5.40;;;15.50;99.90;;;;;;4970030;28;20394;-68
2023/05/21 03:13:27;;;;;;;12.35;5.05;;;15.50;99.90;;;;;;4949789;29;20038;-67
2023/05/21 03:15:55;;;;;;;8.45;5.53;;;15.40;99.90;;;;;;4941851;29;20039;-67
2023/05/21 03:18:22;;;;;;;9.77;5.63;;;15.40;99.90;;;;;;4949149;29;20031;-67
2023/05/21 03:20:48;;;;;;;12.90;4.57;;;15.30;99.90;;;;;;4970030;28;20384;-67
2023/05/21 03:23:14;;;;;;;12.60;5.35;;;15.40;99.90;;;;;;4964303;28;20031;-67
2023/05/21 03:25:40;;;;;;;15.20;6.97;;;15.30;99.90;;;;;;4955141;29;20031;-67
2023/05/21 03:28:08;;;;;;;15.88;7.45;;;15.30;99.90;;;;;;4949335;29;20042;-68
2023/05/21 03:30:35;;;;;;;13.35;5.95;;;15.30;99.90;;;;;;4946906;29;20027;-67
2023/05/21 03:33:02;;;;;;;11.10;5.05;;;15.20;99.90;;;;;;4980260;28;20042;-68
2023/05/21 03:35:28;;;;;;;13.00;5.75;;;15.20;99.90;;;;;;4947062;29;20070;-68
2023/05/21 03:37:53;;;;;;;14.30;5.70;;;15.20;99.90;;;;;;4949314;29;20082;-67
2023/05/21 03:40:20;;;;;;;11.60;5.93;;;15.30;99.90;;;;;;4954552;29;20046;-67
2023/05/21 03:42:46;;;;;;;12.02;5.28;;;15.20;99.90;;;;;;4963634;28;20050;-67
2023/05/21 03:45:12;;;;;;;11.02;5.75;;;15.20;99.90;;;;;;4954798;29;20054;-68
2023/05/21 03:47:38;;;;;;;12.13;5.85;;;15.10;99.90;;;;;;4949108;29;20038;-67
2023/05/21 03:50:05;;;;;;;12.77;5.43;;;15.20;99.90;;;;;;4954105;29;20031;-67
2023/05/21 03:52:30;;;;;;;12.15;6.20;;;15.20;99.90;;;;;;4948122;29;20035;-67
2023/05/21 03:54:56;;;;;;;10.40;5.25;;;15.20;99.90;;;;;;4954685;29;20402;-67
2023/05/21 03:57:22;;;;;;;9.68;5.50;;;15.20;99.90;;;;;;4949074;29;20125;-67
2023/05/21 03:59:47;;;;;;;13.10;5.15;;;15.20;99.90;;;;;;4954406;29;20570;-67
2023/05/21 04:02:13;;;;;;;11.40;4.97;;;15.20;99.90;;;;;;4947716;29;20126;-67
2023/05/21 04:04:39;;;;;;;11.93;5.32;;;15.20;99.90;;;;;;4954289;29;20118;-67
2023/05/21 04:07:04;;;;;;;12.48;6.10;;;15.20;99.90;;;;;;4949465;29;20063;-67
2023/05/21 04:09:30;;;;;;;18.33;6.43;;;15.20;99.90;;;;;;4953257;29;20038;-68
2023/05/21 04:11:56;;;;;;;14.20;6.05;;;15.20;99.90;;;;;;4949973;28;20034;-68
2023/05/21 04:14:22;;;;;;;12.95;5.97;;;15.20;99.90;;;;;;4950624;29;20024;-68
2023/05/21 04:16:48;;;;;;;14.15;6.10;;;15.10;99.90;;;;;;4934154;29;20156;-68
2023/05/21 04:19:14;;;;;;;10.57;4.90;;;15.10;99.90;;;;;;4951067;29;20039;-68
2023/05/21 04:21:40;;;;;;;9.68;4.35;;;15.10;99.90;;;;;;4967805;28;20509;-68
2023/05/21 04:24:06;;;;;;;10.52;4.97;;;15.10;99.90;;;;;;4950152;29;20054;-68
2023/05/21 04:26:32;;;;;;;13.50;5.90;;;15.00;99.90;;;;;;4953266;29;20484;-68
2023/05/21 04:29:01;;;;;;;10.40;5.03;;;15.10;99.90;;;;;;4948780;29;20031;-67
2023/05/21 04:31:29;;;;;;;13.27;6.47;;;15.00;99.90;;;;;;4954124;29;20572;-68
2023/05/21 04:33:55;;;;;;;11.43;5.63;;;15.10;99.90;;;;;;4948919;29;20090;-68
2023/05/21 04:36:21;;;;;;;12.00;5.70;;;15.20;99.90;;;;;;4954058;29;20043;-69
2023/05/21 04:38:47;;;;;;;11.02;5.43;;;15.20;99.90;;;;;;4947586;29;20553;-67
2023/05/21 04:41:13;;;;;;;13.57;5.93;;;15.20;99.90;;;;;;4954007;29;20039;-67
2023/05/21 04:43:42;;;;;;;13.15;5.70;;;15.20;99.90;;;;;;4948185;29;20031;-67
2023/05/21 04:46:08;;;;;;;13.55;5.70;;;15.20;99.90;;;;;;4953747;29;20035;-67
2023/05/21 04:48:34;;;;;;;12.65;4.95;;;15.20;99.90;;;;;;4947992;29;20114;-68
2023/05/21 04:51:00;;;;;;;9.35;4.63;;;15.30;99.90;;;;;;4968186;28;20031;-67
2023/05/21 04:53:25;;;;;;;15.82;5.53;;;15.30;99.90;;;;;;4948123;29;20450;-67
2023/05/21 04:55:51;;;;;;;11.13;5.35;;;15.30;99.90;;;;;;4953548;29;20106;-68
2023/05/21 04:58:17;;;;;;;12.70;6.13;;;15.40;99.90;;;;;;4962581;28;20114;-68
2023/05/21 05:00:49;;;;;;;12.35;5.22;;;15.40;99.90;;;;;;4950036;29;20508;-68
2023/05/21 05:03:15;;;;;;;9.45;6.05;;;15.50;99.90;;;;;;4942743;29;20510;-67
2023/05/21 05:05:40;;;;;;;11.43;5.82;;;15.50;99.90;;;;;;4953563;29;20106;-68
2023/05/21 05:08:07;;;;;;;12.23;5.85;;;15.50;99.90;;;;;;4947442;29;20388;-67
2023/05/21 05:10:34;;;;;;;9.27;4.78;;;15.50;99.90;;;;;;4968386;23;20043;-71
2023/05/21 05:12:59;;;;;;;13.25;5.68;;;15.50;99.90;;;;;;4972438;28;20395;-70
2023/05/21 05:15:25;;;;;;;11.35;5.18;;;15.50;99.90;;;;;;4970360;28;20030;-71
2023/05/21 05:17:51;;;;;;;12.20;4.85;;;15.60;99.90;;;;;;4966747;28;20035;-71
2023/05/21 05:20:17;;;;;;;13.15;6.47;;;15.60;99.90;;;;;;4970919;28;20510;-71
2023/05/21 05:22:43;;;;;;;12.10;4.97;;;15.60;99.90;;;;;;4965302;28;20035;-71
2023/05/21 05:25:08;;;;;;;10.27;4.72;;;15.60;99.90;;;;;;4972000;28;20042;-72
2023/05/21 05:27:35;;;;;;;13.43;5.72;;;15.70;99.90;;;;;;4964638;28;20034;-72
2023/05/21 05:30:00;;;;;;;12.27;5.15;;;15.70;99.90;;;;;;4971467;28;20117;-73
2023/05/21 05:32:26;;;;;;;10.05;5.07;;;15.70;99.90;;;;;;4971837;28;20110;-76
2023/05/21 05:34:52;;;;;;;10.45;5.57;;;15.80;99.90;;;;;;4972292;28;20487;-78
2023/05/21 05:37:17;;;;;;;13.82;5.78;;;15.90;99.90;;;;;;4968941;28;20566;-79
2023/05/21 05:39:43;;;;;;;10.00;4.75;;;15.90;99.90;;;;;;4994024;28;20118;-74
2023/05/21 05:42:09;;;;;;;11.32;6.15;;;15.90;99.90;;;;;;4964562;28;20490;-75
2023/05/21 05:44:35;;;;;;;16.85;5.70;;;15.90;99.90;;;;;;4979565;28;20114;-75
2023/05/21 05:47:00;;;;;;;10.13;5.15;;;15.90;99.90;;;;;;4984175;28;20050;-77
2023/05/21 05:49:26;;;;;;;12.85;5.60;;;15.90;99.90;;;;;;4981473;28;20486;-76
2023/05/21 05:51:52;;;;;;;11.27;4.95;;;15.90;99.90;;;;;;4966902;28;20118;-75
2023/05/21 05:54:18;;;;;;;11.07;4.90;;;15.90;99.90;;;;;;4980777;28;20380;-73
2023/05/21 05:56:44;;;;;;;12.70;5.45;;;15.90;99.90;;;;;;4968732;28;20069;-73
2023/05/21 05:59:09;;;;;;;11.32;4.68;;;16.00;99.90;;;;;;4979237;28;20065;-76
2023/05/21 06:01:35;;;;;;;13.57;6.20;;;16.00;99.90;;;;;;4973582;28;20035;-77
2023/05/21 06:04:01;;;;;;;11.13;5.13;;;16.00;99.90;;;;;;4990613;28;20119;-75
2023/05/21 06:06:26;;;;;;;11.57;4.88;;;16.10;99.90;;;;;;4978628;28;20035;-77
2023/05/21 06:08:53;;;;;;;10.00;5.00;;;16.20;99.90;;;;;;4979431;28;20049;-74
2023/05/21 06:11:20;;;;;;;10.45;4.97;;;16.20;99.90;;;;;;4978379;28;20038;-73
2023/05/21 06:13:46;;;;;;;15.68;5.53;;;16.30;99.90;;;;;;4977610;28;20102;-74
2023/05/21 06:16:12;;;;;;;12.18;5.13;;;16.40;99.90;;;;;;4971259;28;20118;-74
2023/05/21 06:18:38;;;;;;;15.07;5.38;;;16.50;99.90;;;;;;4974125;28;20357;-74
2023/05/21 06:21:03;;;;;;;11.07;4.90;;;16.60;99.90;;;;;;4972024;28;20043;-74
2023/05/21 06:23:31;;;;;;;10.18;5.40;;;16.70;99.90;;;;;;4964411;28;20038;-75
2023/05/21 06:25:57;;;;;;;10.27;5.05;;;16.90;99.90;;;;;;4957048;28;20561;-73
2023/05/21 06:28:22;;;;;;;10.93;6.03;;;16.90;99.90;;;;;;4989229;28;20034;-76
2023/05/21 06:30:48;;;;;;;12.10;5.57;;;17.10;99.90;;;;;;4969280;28;20619;-75
2023/05/21 06:33:14;;;;;;;8.75;4.47;;;17.20;99.90;;;;;;4957620;28;20038;-73
2023/05/21 06:35:40;;;;;;;10.50;4.80;;;17.40;99.90;;;;;;4979608;28;20498;-78
2023/05/21 06:38:05;;;;;;;12.07;5.13;;;17.60;99.90;;;;;;4977824;28;20501;-74
2023/05/21 06:40:31;;;;;;;9.30;4.93;;;17.70;99.90;;;;;;4997912;28;20126;-75
2023/05/21 06:42:58;;;;;;;11.43;5.57;;;17.90;99.90;;;;;;4974620;28;20137;-75
2023/05/21 06:45:24;;;;;;;12.73;5.22;;;17.90;99.90;;;;;;4976320;28;20392;-75
2023/05/21 06:47:50;;;;;;;10.90;5.68;;;18.10;99.90;;;;;;4972091;28;20031;-74
2023/05/21 06:50:16;;;;;;;11.18;5.25;;;18.20;99.90;;;;;;4975752;28;20429;-73
2023/05/21 06:52:42;;;;;;;11.43;5.05;;;18.40;99.90;;;;;;4972831;28;20502;-73
2023/05/21 06:55:08;;;;;;;11.73;5.38;;;18.60;99.90;;;;;;4982343;28;20034;-73
2023/05/21 06:57:36;;;;;;;9.93;4.38;;;18.70;99.90;;;;;;4990645;28;20068;-74
2023/05/21 07:00:05;;;;;;;11.32;4.75;;;18.80;99.90;;;;;;5001290;28;20030;-73
2023/05/21 07:02:33;;;;;;;9.18;4.88;;;19.00;99.90;;;;;;4971593;28;20585;-75
2023/05/21 07:04:58;;;;;;;12.18;5.35;;;19.10;99.90;;;;;;4974388;28;20027;-73
2023/05/21 07:07:24;;;;;;;10.77;6.55;;;19.20;99.90;;;;;;4966853;28;20045;-74
2023/05/21 07:09:50;;;;;;;11.55;5.68;;;19.50;99.90;;;;;;4973682;28;20085;-76
2023/05/21 07:12:16;;;;;;;11.30;5.13;;;19.60;99.90;;;;;;4971101;28;20023;-75
2023/05/21 07:14:41;;;;;;;7.07;4.30;;;19.80;99.90;;;;;;4973877;28;20086;-76
2023/05/21 07:17:07;;;;;;;7.93;4.35;;;19.90;99.90;;;;;;4939017;28;20039;-74
2023/05/21 07:19:33;;;;;;;12.07;5.05;;;19.90;99.90;;;;;;4980203;28;20035;-75
2023/05/21 07:21:58;;;;;;;10.32;5.45;;;20.10;99.90;;;;;;4964042;28;20039;-75
2023/05/21 07:24:26;;;;;;;9.63;4.95;;;20.20;99.90;;;;;;4973786;28;20038;-76
2023/05/21 07:26:52;;;;;;;8.10;4.65;;;20.20;99.90;;;;;;4970469;28;20399;-75
2023/05/21 07:29:18;;;;;;;7.75;4.07;;;20.20;99.90;;;;;;4973112;28;20022;-75
2023/05/21 07:31:43;;;;;;;8.60;4.75;;;20.40;99.90;;;;;;4969084;28;20046;-76
2023/05/21 07:34:09;;;;;;;10.65;5.15;;;20.50;99.90;;;;;;4970896;28;20065;-76
2023/05/21 07:36:38;;;;;;;11.10;4.72;;;20.50;99.90;;;;;;4966118;28;20062;-76
2023/05/21 07:39:03;;;;;;;10.60;4.65;;;20.30;99.90;;;;;;4969835;28;20039;-76
2023/05/21 07:41:29;;;;;;;11.30;5.25;;;20.60;99.90;;;;;;4970724;28;20097;-77
2023/05/21 07:43:55;;;;;;;11.55;4.93;;;20.70;99.90;;;;;;4972655;28;20085;-77
2023/05/21 07:46:21;;;;;;;10.00;4.13;;;20.90;99.90;;;;;;4968576;28;20031;-77
2023/05/21 07:48:47;;;;;;;11.55;4.50;;;20.90;99.90;;;;;;4972548;28;20055;-77
2023/05/21 07:51:13;;;;;;;7.20;4.22;;;21.10;99.90;;;;;;4966967;28;20031;-76
2023/05/21 07:53:39;;;;;;;10.23;5.35;;;21.30;99.90;;;;;;4968004;28;20042;-77
2023/05/21 07:56:05;;;;;;;9.90;4.28;;;21.30;99.90;;;;;;4967967;28;20479;-75
2023/05/21 07:58:31;;;;;;;7.70;4.03;;;21.30;99.90;;;;;;4970632;28;20109;-76
2023/05/21 08:00:57;;;;;;;10.57;4.35;;;21.40;99.90;;;;;;4968874;28;20344;-76
2023/05/21 08:03:23;;;;;;;7.22;3.63;;;21.50;99.90;;;;;;4971227;28;20103;-76
2023/05/21 08:05:49;;;;;;;9.13;4.22;;;21.40;99.90;;;;;;4969997;28;20066;-76
2023/05/21 08:08:19;;;;;;;7.75;4.07;;;21.50;99.90;;;;;;4969677;28;20050;-75
2023/05/21 08:10:45;;;;;;;7.80;3.92;;;21.60;99.90;;;;;;4969405;28;20097;-75
2023/05/21 08:13:12;;;;;;;10.65;4.60;;;21.70;99.90;;;;;;4974233;28;20403;-75
2023/05/21 08:15:38;;;;;;;8.15;3.95;;;21.70;99.90;;;;;;4935143;28;20482;-76
2023/05/21 08:18:04;;;;;;;9.15;4.18;;;21.60;99.90;;;;;;4974702;28;20022;-76
2023/05/21 08:20:32;;;;;;;10.25;5.10;;;21.50;99.90;;;;;;4969741;28;20103;-76
2023/05/21 08:22:59;;;;;;;9.32;4.57;;;21.70;99.90;;;;;;4972566;28;20026;-75
2023/05/21 08:25:28;;;;;;;7.55;4.45;;;21.70;99.90;;;;;;4961513;28;20054;-77
2023/05/21 08:27:54;;;;;;;11.45;4.35;;;21.80;99.90;;;;;;4965418;28;20034;-75
2023/05/21 08:30:20;;;;;;;9.70;4.25;;;21.80;99.90;;;;;;4973014;28;20360;-75
2023/05/21 08:32:47;;;;;;;9.35;4.20;;;21.90;99.90;;;;;;4974452;28;20078;-75
2023/05/21 08:35:13;;;;;;;8.02;4.68;;;21.90;99.90;;;;;;4970560;28;20034;-76
2023/05/21 08:37:39;;;;;;;8.05;4.60;;;21.70;99.90;;;;;;4965791;28;20046;-77
2023/05/21 08:40:05;;;;;;;9.65;5.38;;;21.90;99.90;;;;;;4972509;28;20034;-78
2023/05/21 08:42:31;;;;;;;8.82;3.97;;;22.00;99.90;;;;;;4964153;28;20078;-76
2023/05/21 08:44:59;;;;;;;8.00;4.10;;;22.00;99.90;;;;;;4971997;28;20047;-84
2023/05/21 08:47:30;;;;;;;6.60;4.07;;;21.80;99.90;;;;;;4964063;28;20034;-75
2023/05/21 08:49:56;;;;;;;9.32;4.90;;;22.00;99.90;;;;;;4972526;28;20078;-75
2023/05/21 08:52:22;;;;;;;14.18;4.65;;;22.10;99.90;;;;;;4947406;28;20038;-85
2023/05/21 08:54:50;;;;;;;10.82;4.47;;;22.10;99.90;;;;;;4958006;28;20155;-78
2023/05/21 08:57:17;;;;;;;7.90;4.03;;;22.30;99.90;;;;;;4949112;28;20034;-75
2023/05/21 08:59:44;;;;;;;7.50;3.80;;;22.10;99.90;;;;;;4955209;28;20052;-76
2023/05/21 09:02:14;;;;;;;6.47;4.15;;;22.20;99.90;;;;;;4969129;28;20066;-76
2023/05/21 09:04:40;;;;;;;8.32;4.05;;;22.40;99.90;;;;;;4963679;28;20419;-76
2023/05/21 09:07:08;;;;;;;8.27;4.38;;;22.40;99.90;;;;;;4967597;28;20039;-77
2023/05/21 09:10:01;;;;;;;6.35;4.15;;;22.60;99.90;;;;;;4968295;28;20479;-76
2023/05/21 09:12:27;;;;;;;6.97;4.13;;;22.80;99.90;;;;;;4955804;28;20065;-76
2023/05/21 09:14:55;;;;;;;9.55;4.35;;;22.70;99.90;;;;;;4954778;28;20039;-76
2023/05/21 09:17:21;;;;;;;7.03;3.65;;;22.80;99.90;;;;;;4949512;28;20456;-75
2023/05/21 09:20:12;;;;;;;6.78;3.67;;;22.70;99.90;;;;;;4954863;28;20042;-75
2023/05/21 09:22:49;;;;;;;10.15;4.32;;;22.90;99.90;;;;;;4958540;28;20030;-73
2023/05/21 09:25:26;;;;;;;5.28;3.53;;;23.00;99.90;;;;;;4971899;28;20035;-73
2023/05/21 09:27:54;;;;;;;8.13;4.50;;;23.10;99.90;;;;;;4964788;28;20039;-77
2023/05/21 09:30:20;;;;;;;7.78;4.25;;;23.00;99.90;;;;;;4967244;28;20027;-75
2023/05/21 09:32:55;;;;;;;8.40;4.15;;;23.00;99.90;;;;;;4968414;28;20034;-77
2023/05/21 09:35:21;;;;;;;7.28;4.05;;;22.90;99.90;;;;;;4955098;28;20106;-78
2023/05/21 09:37:52;;;;;;;7.00;4.10;;;22.90;99.90;;;;;;4969695;28;20050;-78
2023/05/21 09:40:19;;;;;;;7.97;3.97;;;23.20;99.90;;;;;;4955694;28;20035;-82
2023/05/21 09:42:51;;;;;;;8.27;4.05;;;23.10;99.90;;;;;;4964594;28;20110;-79
2023/05/21 09:45:21;;;;;;;5.95;3.53;;;23.10;99.90;;;;;;4964697;28;20197;-77
2023/05/21 09:47:49;;;;;;;;;;;23.20;99.90;;;;;;4948783;28;20109;-76
2023/05/21 09:50:22;;;;;;;6.88;3.83;;;22.80;99.90;;;;;;4959627;28;19910;-76
2023/05/21 09:52:51;;;;;;;7.38;3.83;;;22.90;99.90;;;;;;4947375;28;20035;-76
2023/05/21 09:55:22;;;;;;;6.95;3.55;;;23.20;99.90;;;;;;4971764;28;20054;-81
2023/05/21 09:57:48;;;;;;;7.18;4.45;;;23.60;99.90;;;;;;4964645;28;20038;-76
2023/05/21 10:00:23;;;;;;;7.05;4.13;;;23.70;99.90;;;;;;4970723;28;20411;-76
2023/05/21 10:03:12;;;;;;;6.78;3.63;;;23.80;99.90;;;;;;4964011;28;20106;-76
2023/05/21 10:05:40;;;;;;;8.10;4.30;;;23.80;99.90;;;;;;4960387;28;20033;-76
2023/05/21 10:08:07;;;;;;;7.30;4.07;;;24.10;99.90;;;;;;4948433;28;20031;-76
2023/05/21 10:10:37;;;;;;;9.57;4.95;;;24.30;99.90;;;;;;4950872;28;20054;-76
2023/05/21 10:13:07;;;;;;;8.73;4.35;;;23.70;99.90;;;;;;4968608;28;20093;-76
2023/05/21 10:15:49;;;;;;;;;;;24.20;99.90;;;;;;4966963;28;20078;-76
2023/05/21 10:18:17;;;;;;;7.85;4.10;;;24.50;99.60;;;;;;4935380;28;20408;-76
2023/05/21 10:20:44;;;;;;;8.02;4.10;;;24.50;99.90;;;;;;4965171;28;20042;-76
2023/05/21 10:23:11;;;;;;;6.82;3.80;;;24.80;99.70;;;;;;4951268;28;20027;-77
2023/05/21 10:25:37;;;;;;;5.13;3.53;;;25.00;99.10;;;;;;4951777;28;20479;-77
2023/05/21 10:28:05;;;;;;;9.40;4.47;;;24.90;99.20;;;;;;4951344;28;20043;-76
2023/05/21 10:30:33;;;;;;;7.38;4.13;;;25.10;99.30;;;;;;4951473;28;20032;-76
2023/05/21 10:33:00;;;;;;;7.38;4.00;;;24.90;99.60;;;;;;4950859;28;20026;-77
2023/05/21 10:35:27;;;;;;;7.40;4.15;;;25.30;99.20;;;;;;4951538;28;20027;-77
2023/05/21 10:37:55;;;;;;;6.43;3.53;;;25.30;98.80;;;;;;4969255;28;20035;-77
2023/05/21 10:40:21;;;;;;;7.15;3.95;;;25.30;99.20;;;;;;4951247;28;20027;-76
2023/05/21 10:43:26;;;;;;;7.22;4.05;;;25.60;98.70;;;;;;4937607;28;20509;-76
2023/05/21 10:46:16;;;;;;;7.53;3.55;;;25.80;98.70;;;;;;4948051;28;20491;-76
2023/05/21 10:49:24;;;;;;;5.67;3.50;;;25.60;98.40;;;;;;4965863;28;20038;-76
2023/05/21 10:52:31;;;;;;;7.38;3.80;;;26.00;97.60;;;;;;4962207;28;20135;-75
2023/05/21 10:55:18;;;;;;;5.80;3.60;;;26.20;97.00;;;;;;4963036;28;20035;-76
2023/05/21 10:57:53;;;;;;;7.15;3.67;;;26.40;96.70;;;;;;4961983;28;20031;-76
2023/05/21 11:00:20;;;;;;;6.45;3.65;;;26.10;97.20;;;;;;4965661;28;20114;-76
2023/05/21 11:02:50;;;;;;;7.65;4.00;;;26.40;97.30;;;;;;4968105;28;20561;-76
2023/05/21 11:05:16;;;;;;;;;;;27.00;96.40;;;;;;4966532;28;20607;-77
2023/05/21 11:07:56;;;;;;;6.38;3.60;;;26.40;96.30;;;;;;4969284;28;19953;-76
2023/05/21 11:10:39;;;;;;;6.75;3.88;;;27.00;95.50;;;;;;4964300;28;20051;-76
2023/05/21 11:13:15;;;;;;;7.95;3.40;;;27.00;95.50;;;;;;4947018;28;20059;-76
2023/05/21 11:15:56;;;;;;;6.93;4.20;;;27.20;95.50;;;;;;4957431;28;20034;-76
2023/05/21 11:18:36;;;;;;;6.30;3.53;;;27.70;94.70;;;;;;4967455;28;20066;-76
2023/05/21 11:21:09;;;;;;;7.93;3.40;;;27.90;94.80;;;;;;4966643;28;20506;-76
2023/05/21 11:23:50;;;;;;;5.43;3.17;;;28.30;94.20;;;;;;4978445;28;20100;-76
2023/05/21 11:26:21;;;;;;;6.43;3.53;;;28.60;94.10;;;;;;4968644;28;20031;-76
2023/05/21 11:29:05;;;;;;;8.50;4.00;;;28.60;93.90;;;;;;4971992;28;20034;-76
2023/05/21 11:31:36;;;;;;;6.18;3.47;;;27.90;94.10;;;;;;4975033;28;20035;-76
2023/05/21 11:34:27;;;;;;;6.38;3.30;;;28.00;93.90;;;;;;4973986;28;20023;-76
2023/05/21 11:37:15;;;;;;;;;;;27.70;93.90;;;;;;4966494;28;20807;-76
2023/05/21 11:39:41;;;;;;;9.98;4.30;;;28.50;93.80;;;;;;4965819;28;20000;-76
2023/05/21 11:42:06;;;;;;;6.88;3.47;;;28.20;94.10;;;;;;4967074;28;20031;-76
2023/05/21 11:44:43;;;;;;;6.00;3.55;;;28.90;93.20;;;;;;4973625;28;20031;-77
2023/05/21 11:47:14;;;;;;;5.60;3.40;;;29.40;92.30;;;;;;4967878;28;20039;-77
2023/05/21 11:49:40;;;;;;;5.65;3.03;;;29.50;91.70;;;;;;4965072;28;20062;-77
2023/05/21 11:52:08;;;;;;;6.93;3.78;;;28.70;92.40;;;;;;4967155;28;20451;-77
2023/05/21 11:54:44;;;;;;;13.68;4.10;;;29.00;92.20;;;;;;4973347;28;20026;-77
2023/05/21 11:57:16;;;;;;;5.15;2.95;;;28.60;92.40;;;;;;4967469;28;20058;-77
2023/05/21 11:59:42;;;;;;;5.60;3.33;;;29.00;91.80;;;;;;4965228;28;20034;-77
2023/05/21 12:02:08;;;;;;;12.07;3.80;;;29.00;91.70;;;;;;4950355;29;20035;-76
2023/05/21 12:04:35;;;;;;;6.18;3.40;;;29.00;92.20;;;;;;4973205;28;20117;-77
2023/05/21 12:07:09;;;;;;;11.18;3.42;;;29.00;91.90;;;;;;4955902;28;20067;-76
2023/05/21 12:09:44;;;;;;;5.82;3.30;;;28.90;92.40;;;;;;4972829;28;20026;-76
2023/05/21 12:12:15;;;;;;;6.03;3.08;;;29.60;91.00;;;;;;4965890;28;20042;-76
2023/05/21 12:14:54;;;;;;;7.05;3.15;;;29.20;89.50;;;;;;4955748;28;20033;-76
2023/05/21 12:17:25;;;;;;;6.68;3.33;;;28.80;92.00;;;;;;4967963;28;20034;-77
2023/05/21 12:19:57;;;;;;;6.45;3.33;;;29.10;91.10;;;;;;4953187;28;20105;-76
2023/05/21 12:22:24;;;;;;;3.97;2.65;;;29.80;90.00;;;;;;4966784;28;20487;-72
2023/05/21 12:24:52;;;;;;;4.97;2.92;;;30.10;87.60;;;;;;4955204;28;22253;-75
2023/05/21 12:27:19;;;;;;;5.03;3.05;;;29.80;87.60;;;;;;4967907;28;20562;-71
2023/05/21 12:29:48;;;;;;;5.57;3.10;;;30.30;87.10;;;;;;4954969;28;20037;-74
2023/05/21 12:32:15;;;;;;;5.95;2.97;;;30.60;88.10;;;;;;4965837;28;20042;-75
2023/05/21 12:34:53;;;;;;;4.95;2.60;;;29.90;83.20;;;;;;4955451;28;20031;-75
2023/05/21 12:37:30;;;;;;;7.05;3.30;;;29.80;86.90;;;;;;4968124;28;20411;-78
2023/05/21 12:40:00;;;;;;;5.20;2.85;;;30.30;83.50;;;;;;4945072;28;20246;-81
2023/05/21 12:42:33;;;;;;;7.25;3.03;;;30.10;82.90;;;;;;4961689;28;20179;-74
2023/05/21 12:45:09;;;;;;;4.40;2.67;;;30.20;84.40;;;;;;4942884;28;20679;-79
2023/05/21 12:47:36;;;;;;;4.93;3.15;;;30.70;81.90;;;;;;4971094;28;20031;-73
2023/05/21 12:50:06;;;;;;;4.50;2.72;;;30.50;80.50;;;;;;4943234;28;20057;-76